Terminal Aerodrome Forecast
Issued by NWS

Home | Current Version | Previous Version | Text Only | Print | Product List | Glossary On
Versions: 1 2 3 4 5 6 7 8 9 10 11 12 13 14 15 16 17 18 19 20 21 22 23 24 25 26 27 28 29 30
185
FTUS44 KEWX 200934 AAC
TAFSSF
TAF AMD
KSSF 200934Z 2010/2106 VRB03KT 4SM TSRA BKN080CB OVC100
     FM201200 VRB03KT P6SM -RA OVC080
     FM201400 36006KT P6SM BKN100
     FM201900 VRB03KT P6SM FEW050 SCT200=

USA.gov is the U.S. government's official web portal to all federal, state and local government web resources and services.